createdAt,value
2017-08-23T00:00:10.304Z,7.60
2017-08-23T00:02:37.780Z,7.87
2017-08-23T00:05:05.228Z,8.33
2017-08-23T00:07:32.710Z,9.37
2017-08-23T00:10:00.221Z,8.67
2017-08-23T00:12:27.681Z,10.50
2017-08-23T00:14:55.153Z,7.37
2017-08-23T00:17:22.609Z,8.97
2017-08-23T00:22:26.705Z,8.33
2017-08-23T00:24:54.184Z,8.27
2017-08-23T00:27:21.633Z,8.73
2017-08-23T00:29:49.077Z,8.77
2017-08-23T00:32:16.550Z,9.83
2017-08-23T00:34:44.012Z,10.03
2017-08-23T00:37:11.466Z,8.90
2017-08-23T00:39:38.944Z,8.13
2017-08-23T00:42:06.390Z,8.40
2017-08-23T00:44:33.848Z,9.90
2017-08-23T00:47:01.322Z,9.30
2017-08-23T00:49:28.811Z,9.20
2017-08-23T00:51:56.273Z,9.50
2017-08-23T00:54:23.729Z,10.27
2017-08-23T00:56:51.204Z,10.90
2017-08-23T00:59:18.657Z,11.13
2017-08-23T01:01:46.111Z,9.20
2017-08-23T01:04:13.571Z,9.47
2017-08-23T01:06:41.076Z,10.30
2017-08-23T01:09:08.550Z,10.10
2017-08-23T01:11:36.024Z,9.97
2017-08-23T01:14:03.511Z,10.33
2017-08-23T01:16:30.984Z,11.47
2017-08-23T01:18:58.462Z,12.43
2017-08-23T01:21:25.909Z,10.87
2017-08-23T01:23:53.361Z,12.20
2017-08-23T01:28:57.658Z,11.27
2017-08-23T01:31:25.120Z,13.30
2017-08-23T01:33:52.568Z,14.83
2017-08-23T01:36:20.042Z,11.20
2017-08-23T01:38:47.501Z,13.13
2017-08-23T01:41:14.953Z,10.60
2017-08-23T01:43:42.429Z,13.27
2017-08-23T01:46:10.213Z,15.83
2017-08-23T01:48:37.697Z,15.37
2017-08-23T01:51:05.172Z,14.10
2017-08-23T01:53:32.631Z,12.77
2017-08-23T01:56:00.109Z,13.20
2017-08-23T01:58:27.558Z,13.57
2017-08-23T02:00:55.008Z,13.47
2017-08-23T02:03:22.498Z,12.93
2017-08-23T02:05:49.979Z,14.70
2017-08-23T02:08:17.437Z,12.40
2017-08-23T02:10:44.902Z,12.20
2017-08-23T02:13:12.383Z,11.30
2017-08-23T02:15:39.862Z,12.43
2017-08-23T02:18:07.314Z,11.30
2017-08-23T02:20:34.769Z,11.20
2017-08-23T02:23:02.340Z,11.40
2017-08-23T02:25:29.813Z,11.90
2017-08-23T02:27:57.293Z,11.23
2017-08-23T02:30:24.761Z,11.83
2017-08-23T02:32:52.242Z,12.40
2017-08-23T02:35:19.724Z,11.97
2017-08-23T02:37:47.218Z,11.80
2017-08-23T02:40:14.697Z,12.93
2017-08-23T02:42:42.186Z,10.87
2017-08-23T02:45:09.636Z,12.10
2017-08-23T02:47:37.084Z,12.57
2017-08-23T02:50:04.568Z,12.60
2017-08-23T02:52:32.053Z,12.57
2017-08-23T02:54:59.506Z,14.40
2017-08-23T02:57:26.979Z,13.60
2017-08-23T02:59:54.433Z,11.47
2017-08-23T03:02:21.913Z,13.00
2017-08-23T03:04:49.373Z,10.10
2017-08-23T03:07:16.838Z,11.00
2017-08-23T03:09:44.295Z,9.00
2017-08-23T03:12:11.766Z,8.43
2017-08-23T03:14:39.236Z,7.43
2017-08-23T03:17:06.689Z,8.40
2017-08-23T03:19:34.165Z,8.13
2017-08-23T03:22:01.605Z,8.03
2017-08-23T03:24:29.048Z,7.00
2017-08-23T03:26:56.517Z,7.77
2017-08-23T03:29:24.169Z,7.50
2017-08-23T03:31:51.640Z,7.40
2017-08-23T03:34:19.076Z,7.17
2017-08-23T03:36:46.553Z,7.70
2017-08-23T03:39:14.013Z,7.97
2017-08-23T03:41:41.478Z,7.10
2017-08-23T03:44:08.942Z,7.93
2017-08-23T03:46:36.384Z,6.37
2017-08-23T03:49:03.865Z,7.40
2017-08-23T03:51:31.329Z,8.17
2017-08-23T03:53:58.777Z,7.63
2017-08-23T03:56:26.253Z,7.63
2017-08-23T03:58:53.700Z,7.23
2017-08-23T04:01:21.182Z,8.70
2017-08-23T04:03:48.676Z,10.57
2017-08-23T04:06:16.161Z,9.37
2017-08-23T04:08:43.619Z,10.63
2017-08-23T04:11:11.071Z,9.73
2017-08-23T04:13:38.550Z,9.80
2017-08-23T04:16:06.010Z,11.13
2017-08-23T04:18:33.477Z,9.83
2017-08-23T04:21:00.942Z,9.03
2017-08-23T04:23:28.411Z,9.70
2017-08-23T04:25:55.893Z,10.90
2017-08-23T04:28:23.353Z,9.33
2017-08-23T04:30:50.805Z,9.87
2017-08-23T04:33:18.278Z,10.00
2017-08-23T04:35:45.734Z,9.47
2017-08-23T04:38:13.210Z,10.00
2017-08-23T04:40:40.657Z,9.47
2017-08-23T04:43:08.128Z,8.27
2017-08-23T04:45:35.597Z,7.77
2017-08-23T04:48:03.044Z,9.30
2017-08-23T04:50:30.528Z,10.13
2017-08-23T04:52:57.980Z,10.07
2017-08-23T04:55:25.463Z,9.73
2017-08-23T04:57:52.907Z,9.70
2017-08-23T05:00:20.381Z,10.20
2017-08-23T05:02:47.838Z,9.63
2017-08-23T05:05:15.294Z,9.23
2017-08-23T05:07:42.768Z,11.07
2017-08-23T05:10:10.219Z,10.97
2017-08-23T05:12:37.701Z,10.10
2017-08-23T05:15:05.164Z,11.80
2017-08-23T05:17:32.641Z,10.83
2017-08-23T05:20:00.404Z,9.90
2017-08-23T05:22:27.854Z,10.43
2017-08-23T05:24:55.304Z,10.87
2017-08-23T05:27:22.778Z,12.27
2017-08-23T05:29:50.233Z,11.73
2017-08-23T05:32:17.705Z,12.70
2017-08-23T05:34:45.186Z,13.47
2017-08-23T05:37:12.676Z,15.90
2017-08-23T05:39:40.145Z,15.27
2017-08-23T05:42:07.600Z,15.90
2017-08-23T05:44:35.054Z,14.00
2017-08-23T05:47:02.536Z,15.10
2017-08-23T05:49:30.015Z,16.40
2017-08-23T05:51:57.488Z,15.50
2017-08-23T05:54:25.151Z,14.03
2017-08-23T05:56:52.604Z,16.17
2017-08-23T05:59:20.063Z,15.00
2017-08-23T06:01:47.544Z,16.70
2017-08-23T06:04:15.026Z,16.30
2017-08-23T06:06:42.505Z,16.13
2017-08-23T06:09:09.964Z,14.90
2017-08-23T06:11:37.433Z,16.00
2017-08-23T06:14:04.912Z,16.40
2017-08-23T06:16:32.389Z,15.10
2017-08-23T06:18:59.853Z,16.57
2017-08-23T06:21:27.306Z,18.00
2017-08-23T06:23:54.787Z,19.77
2017-08-23T06:26:22.245Z,16.00
2017-08-23T06:28:49.744Z,15.50
2017-08-23T06:31:17.237Z,15.67
2017-08-23T06:33:44.689Z,16.00
2017-08-23T06:36:12.181Z,15.43
2017-08-23T06:38:39.634Z,16.33
2017-08-23T06:41:07.085Z,14.30
2017-08-23T06:43:34.560Z,14.60
2017-08-23T06:46:02.025Z,12.93
2017-08-23T06:48:29.508Z,13.17
2017-08-23T06:50:56.972Z,11.40
2017-08-23T06:53:24.464Z,11.40
2017-08-23T06:55:51.919Z,13.00
2017-08-23T06:58:19.368Z,10.50
2017-08-23T07:00:46.841Z,12.50
2017-08-23T07:03:14.296Z,10.00
2017-08-23T07:05:41.769Z,11.50
2017-08-23T07:08:09.222Z,11.27
2017-08-23T07:10:36.689Z,9.40
2017-08-23T07:13:04.141Z,10.00
2017-08-23T07:15:31.616Z,9.10
2017-08-23T07:17:59.084Z,9.10
2017-08-23T07:20:26.545Z,8.67
2017-08-23T07:22:54.024Z,8.00
2017-08-23T07:25:21.497Z,8.53
2017-08-23T07:27:48.940Z,7.60
2017-08-23T07:30:16.418Z,10.20
2017-08-23T07:32:43.899Z,8.70
2017-08-23T07:35:11.365Z,7.97
2017-08-23T07:37:38.823Z,8.50
2017-08-23T07:40:06.281Z,8.40
2017-08-23T07:42:33.745Z,7.97
2017-08-23T07:45:01.197Z,8.60
2017-08-23T07:47:28.665Z,8.00
2017-08-23T07:49:56.141Z,8.00
2017-08-23T07:52:23.580Z,7.37
2017-08-23T07:54:51.049Z,7.13
2017-08-23T07:57:18.518Z,8.10
2017-08-23T07:59:45.965Z,6.00
2017-08-23T08:02:13.434Z,6.00
2017-08-23T08:04:40.882Z,6.53
2017-08-23T08:07:08.348Z,5.70
2017-08-23T08:09:35.834Z,8.00
2017-08-23T08:12:03.278Z,4.77
2017-08-23T08:14:30.725Z,5.30
2017-08-23T08:16:58.192Z,5.63
2017-08-23T08:19:25.638Z,5.03
2017-08-23T08:21:53.085Z,5.50
2017-08-23T08:24:20.554Z,5.80
2017-08-23T08:26:48.005Z,4.10
2017-08-23T08:29:15.450Z,5.03
2017-08-23T08:31:42.917Z,5.47
2017-08-23T08:34:10.369Z,4.40
2017-08-23T08:36:37.837Z,5.00
2017-08-23T08:39:05.286Z,4.13
2017-08-23T08:41:32.757Z,6.20
2017-08-23T08:44:00.197Z,5.07
2017-08-23T08:46:27.677Z,3.70
2017-08-23T08:48:55.125Z,3.13
2017-08-23T08:51:22.589Z,4.23
2017-08-23T08:53:50.043Z,4.43
2017-08-23T08:56:17.510Z,4.20
2017-08-23T08:58:44.977Z,3.80
2017-08-23T09:01:12.425Z,4.13
2017-08-23T09:03:39.882Z,4.03
2017-08-23T09:06:07.353Z,4.20
2017-08-23T09:08:34.796Z,4.83
2017-08-23T09:11:02.302Z,3.53
2017-08-23T09:13:29.761Z,4.43
2017-08-23T09:15:57.220Z,4.10
2017-08-23T09:18:24.709Z,3.83
2017-08-23T09:20:52.149Z,3.60
2017-08-23T09:23:19.620Z,4.00
2017-08-23T09:25:47.062Z,4.07
2017-08-23T09:28:14.506Z,4.30
2017-08-23T09:30:41.977Z,3.30
2017-08-23T09:33:09.433Z,4.97
2017-08-23T09:35:36.878Z,4.47
2017-08-23T09:38:04.350Z,4.40
2017-08-23T09:40:31.796Z,4.67
2017-08-23T09:42:59.526Z,4.80
2017-08-23T09:45:27.041Z,5.20
2017-08-23T09:47:54.486Z,4.00
2017-08-23T09:50:21.960Z,4.73
2017-08-23T09:52:49.403Z,3.90
2017-08-23T09:55:17.138Z,4.50
2017-08-23T09:57:44.594Z,4.27
2017-08-23T10:00:12.038Z,4.70
2017-08-23T10:02:39.501Z,4.70
2017-08-23T10:05:06.952Z,5.03
2017-08-23T10:07:34.396Z,4.57
2017-08-23T10:10:01.865Z,4.23
2017-08-23T10:12:29.308Z,4.80
2017-08-23T10:14:56.777Z,4.23
2017-08-23T10:17:24.228Z,4.40
2017-08-23T10:19:51.685Z,4.40
2017-08-23T10:22:19.236Z,3.60
2017-08-23T10:24:46.684Z,4.53
2017-08-23T10:27:14.166Z,4.50
2017-08-23T10:29:41.625Z,4.10
2017-08-23T10:32:09.074Z,4.33
2017-08-23T10:34:36.532Z,4.67
2017-08-23T10:37:04.004Z,5.27
2017-08-23T10:39:31.482Z,4.60
2017-08-23T10:41:58.953Z,4.33
2017-08-23T10:44:26.396Z,4.27
2017-08-23T10:46:53.869Z,4.50
2017-08-23T10:49:21.313Z,5.00
2017-08-23T10:51:48.797Z,4.60
2017-08-23T10:54:16.242Z,4.63
2017-08-23T10:56:43.694Z,4.60
2017-08-23T10:59:11.168Z,5.23
2017-08-23T11:01:38.639Z,5.20
2017-08-23T11:04:06.090Z,4.50
2017-08-23T11:06:33.550Z,3.90
2017-08-23T11:09:00.997Z,4.03
2017-08-23T11:11:28.473Z,4.50
2017-08-23T11:13:55.916Z,4.37
2017-08-23T11:16:23.372Z,3.50
2017-08-23T11:18:50.833Z,4.20
2017-08-23T11:21:18.288Z,3.57
2017-08-23T11:23:45.768Z,4.20
2017-08-23T11:26:13.216Z,4.63
2017-08-23T11:28:40.664Z,3.70
2017-08-23T11:31:08.133Z,3.10
2017-08-23T11:33:35.585Z,3.93
2017-08-23T11:36:03.067Z,3.20
2017-08-23T11:38:30.530Z,2.80
2017-08-23T11:40:57.992Z,4.00
2017-08-23T11:43:25.455Z,2.73
2017-08-23T11:45:52.924Z,3.00
2017-08-23T11:48:20.390Z,3.60
2017-08-23T11:50:47.862Z,3.10
2017-08-23T11:53:15.310Z,3.40
2017-08-23T11:55:42.774Z,3.20
2017-08-23T11:58:10.229Z,3.40
2017-08-23T12:00:37.670Z,3.30
2017-08-23T12:03:05.141Z,3.50
2017-08-23T12:05:32.586Z,2.90
2017-08-23T12:08:00.042Z,2.53
2017-08-23T12:10:27.509Z,2.03
2017-08-23T12:12:54.955Z,2.50
2017-08-23T12:15:22.428Z,2.73
2017-08-23T12:17:49.895Z,2.53
2017-08-23T12:20:17.341Z,3.10
2017-08-23T12:22:44.813Z,3.07
2017-08-23T12:25:12.251Z,2.80
2017-08-23T12:27:39.979Z,1.90
2017-08-23T12:30:07.445Z,2.70
2017-08-23T12:32:34.916Z,3.13
2017-08-23T12:35:02.381Z,2.40
2017-08-23T12:37:29.856Z,1.90
2017-08-23T12:39:57.302Z,2.40
2017-08-23T12:42:24.746Z,2.50
2017-08-23T12:44:52.233Z,2.10
2017-08-23T12:47:19.681Z,2.47
2017-08-23T12:49:47.154Z,3.47
2017-08-23T12:52:14.605Z,2.50
2017-08-23T12:54:42.085Z,2.60
2017-08-23T12:57:09.528Z,2.43
2017-08-23T12:59:36.989Z,2.73
2017-08-23T13:02:04.441Z,3.30
2017-08-23T13:04:31.916Z,2.23
2017-08-23T13:06:59.371Z,2.20
2017-08-23T13:09:26.839Z,2.80
2017-08-23T13:11:54.312Z,2.30
2017-08-23T13:14:21.780Z,2.33
2017-08-23T13:16:49.222Z,3.00
2017-08-23T13:19:16.693Z,2.53
2017-08-23T13:21:44.172Z,2.30
2017-08-23T13:24:11.646Z,3.03
2017-08-23T13:26:39.102Z,2.70
2017-08-23T13:29:06.564Z,2.73
2017-08-23T13:31:34.025Z,3.10
2017-08-23T13:34:01.473Z,2.90
2017-08-23T13:36:28.941Z,2.97
2017-08-23T13:38:56.409Z,2.50
2017-08-23T13:41:23.876Z,2.57
2017-08-23T13:43:51.346Z,2.37
2017-08-23T13:46:18.818Z,2.07
2017-08-23T13:48:46.260Z,2.50
2017-08-23T13:51:13.725Z,1.97
2017-08-23T13:53:41.189Z,1.80
2017-08-23T13:56:08.642Z,2.33
2017-08-23T13:58:36.106Z,2.43
2017-08-23T14:01:03.574Z,2.10
2017-08-23T14:03:31.017Z,1.90
2017-08-23T14:05:58.494Z,2.00
2017-08-23T14:08:25.945Z,2.13
2017-08-23T14:10:53.398Z,1.70
2017-08-23T14:13:20.888Z,2.33
2017-08-23T14:15:48.344Z,2.10
2017-08-23T14:18:15.811Z,2.20
2017-08-23T14:20:43.281Z,2.27
2017-08-23T14:23:10.748Z,1.90
2017-08-23T14:25:38.189Z,1.53
2017-08-23T14:28:05.653Z,2.20
2017-08-23T14:30:33.161Z,2.80
2017-08-23T14:33:00.594Z,1.90
2017-08-23T14:35:28.279Z,1.83
2017-08-23T14:37:55.749Z,2.00
2017-08-23T14:40:23.232Z,2.03
2017-08-23T14:42:50.677Z,4.27
2017-08-23T14:45:18.153Z,2.03
2017-08-23T14:47:45.602Z,1.83
2017-08-23T14:50:13.050Z,1.90
2017-08-23T14:52:40.514Z,1.70
2017-08-23T14:55:07.950Z,1.83
2017-08-23T14:57:35.420Z,2.00
2017-08-23T15:00:02.889Z,2.90
2017-08-23T15:02:30.340Z,2.10
2017-08-23T15:04:57.829Z,1.80
2017-08-23T15:07:25.301Z,2.33
2017-08-23T15:09:52.783Z,1.80
2017-08-23T15:12:20.234Z,2.60
2017-08-23T15:14:47.684Z,2.10
2017-08-23T15:17:15.149Z,2.73
2017-08-23T15:19:42.941Z,2.30
2017-08-23T15:22:10.417Z,1.90
2017-08-23T15:24:37.875Z,2.00
2017-08-23T15:27:05.337Z,2.43
2017-08-23T15:29:32.810Z,2.50
2017-08-23T15:32:00.261Z,3.00
2017-08-23T15:34:27.744Z,2.70
2017-08-23T15:36:55.201Z,2.30
2017-08-23T15:39:22.649Z,2.30
2017-08-23T15:41:50.123Z,2.70
2017-08-23T15:44:17.564Z,1.87
2017-08-23T15:46:45.033Z,2.50
2017-08-23T15:49:12.477Z,2.63
2017-08-23T15:51:39.957Z,2.70
2017-08-23T15:54:07.409Z,2.40
2017-08-23T15:56:34.850Z,3.10
2017-08-23T15:59:02.323Z,4.70
2017-08-23T16:01:29.784Z,2.43
2017-08-23T16:03:57.225Z,5.47
2017-08-23T16:06:24.666Z,2.10
2017-08-23T16:08:52.157Z,2.80
2017-08-23T16:11:19.626Z,2.23
2017-08-23T16:13:47.064Z,3.00
2017-08-23T16:16:14.538Z,2.30
2017-08-23T16:18:41.985Z,3.10
2017-08-23T16:21:09.445Z,2.50
2017-08-23T16:23:36.908Z,4.60
2017-08-23T16:26:04.369Z,2.70
2017-08-23T16:28:31.818Z,3.43
2017-08-23T16:30:59.281Z,2.87
2017-08-23T16:33:26.742Z,3.33
2017-08-23T16:35:54.227Z,2.63
2017-08-23T16:38:21.676Z,2.87
2017-08-23T16:40:49.164Z,2.77
2017-08-23T16:43:16.634Z,4.80
2017-08-23T16:45:44.070Z,2.50
2017-08-23T16:48:11.612Z,2.87
2017-08-23T16:50:39.074Z,4.53
2017-08-23T16:53:06.532Z,3.23
2017-08-23T16:55:34.066Z,2.63
2017-08-23T16:58:01.574Z,3.23
2017-08-23T17:00:29.022Z,3.30
2017-08-23T17:02:56.489Z,2.60
2017-08-23T17:05:24.014Z,2.90
2017-08-23T17:07:51.461Z,3.17
2017-08-23T17:10:18.943Z,2.93
2017-08-23T17:12:46.438Z,3.03
2017-08-23T17:15:13.900Z,3.30
2017-08-23T17:17:41.510Z,3.10
2017-08-23T17:20:08.989Z,3.27
2017-08-23T17:22:36.540Z,3.13
2017-08-23T17:25:04.027Z,3.23
2017-08-23T17:27:31.560Z,2.90
2017-08-23T17:29:59.014Z,2.70
2017-08-23T17:32:27.340Z,3.67
2017-08-23T17:34:54.807Z,3.33
2017-08-23T17:37:22.267Z,3.23
2017-08-23T17:39:49.748Z,3.47
2017-08-23T17:42:17.192Z,4.27
2017-08-23T17:44:44.642Z,5.80
2017-08-23T17:47:12.114Z,3.00
2017-08-23T17:49:39.594Z,3.33
2017-08-23T17:52:07.050Z,4.00
2017-08-23T17:54:34.516Z,4.40
2017-08-23T17:57:01.973Z,4.43
2017-08-23T17:59:29.534Z,3.80
2017-08-23T18:01:57.016Z,4.43
2017-08-23T18:04:24.484Z,5.07
2017-08-23T18:06:51.934Z,8.60
2017-08-23T18:09:19.398Z,6.83
2017-08-23T18:11:48.634Z,7.40
2017-08-23T18:14:16.204Z,7.87
2017-08-23T18:16:43.889Z,6.33
2017-08-23T18:19:11.344Z,5.83
2017-08-23T18:21:39.848Z,4.20
2017-08-23T18:24:08.913Z,3.80
2017-08-23T18:26:36.441Z,3.90
2017-08-23T18:29:04.248Z,5.67
2017-08-23T18:31:31.725Z,5.30
2017-08-23T18:34:00.685Z,4.90
2017-08-23T18:36:29.592Z,7.60
2017-08-23T18:38:57.562Z,7.43
2017-08-23T18:41:25.271Z,8.00
2017-08-23T18:43:52.778Z,8.80
2017-08-23T18:46:21.117Z,8.23
2017-08-23T18:48:49.771Z,7.20
2017-08-23T18:51:17.288Z,6.60
2017-08-23T18:53:45.856Z,7.70
2017-08-23T18:56:14.200Z,7.30
2017-08-23T18:58:41.872Z,8.57
2017-08-23T19:01:09.536Z,11.23
2017-08-23T19:03:36.999Z,7.73
2017-08-23T19:06:05.589Z,7.97
2017-08-23T19:08:34.519Z,7.20
2017-08-23T19:11:02.021Z,7.50
2017-08-23T19:13:29.494Z,7.27
2017-08-23T19:15:57.264Z,5.60
2017-08-23T19:18:26.050Z,7.53
2017-08-23T19:20:54.421Z,13.27
2017-08-23T19:23:21.957Z,19.73
2017-08-23T19:25:49.436Z,8.80
2017-08-23T19:28:16.885Z,10.30
2017-08-23T19:30:44.357Z,10.93
2017-08-23T19:33:11.828Z,9.70
2017-08-23T19:35:39.294Z,8.10
2017-08-23T19:38:06.954Z,10.40
2017-08-23T19:40:34.409Z,11.23
2017-08-23T19:43:01.860Z,8.20
2017-08-23T19:45:29.351Z,8.30
2017-08-23T19:47:57.117Z,7.03
2017-08-23T19:50:24.559Z,9.27
2017-08-23T19:52:52.037Z,9.70
2017-08-23T19:55:19.530Z,9.23
2017-08-23T19:57:47.013Z,8.67
2017-08-23T20:00:14.445Z,8.60
2017-08-23T20:02:42.182Z,8.30
2017-08-23T20:05:09.646Z,8.90
2017-08-23T20:07:37.093Z,15.93
2017-08-23T20:10:04.569Z,16.37
2017-08-23T20:12:32.070Z,16.60
2017-08-23T20:14:59.545Z,16.20
2017-08-23T20:17:26.997Z,11.90
2017-08-23T20:19:54.456Z,9.93
2017-08-23T20:22:21.918Z,9.37
2017-08-23T20:24:49.395Z,7.77
2017-08-23T20:27:16.881Z,10.23
2017-08-23T20:29:44.373Z,9.80
2017-08-23T20:32:11.845Z,9.93
2017-08-23T20:34:39.301Z,11.40
2017-08-23T20:37:06.777Z,12.20
2017-08-23T20:39:34.233Z,12.10
2017-08-23T20:42:01.717Z,13.20
2017-08-23T20:44:29.189Z,11.97
2017-08-23T20:46:56.640Z,11.33
2017-08-23T20:49:24.121Z,11.37
2017-08-23T20:51:51.578Z,11.13
2017-08-23T20:54:19.070Z,12.83
2017-08-23T20:56:46.534Z,27.00
2017-08-23T20:59:14.000Z,13.20
2017-08-23T21:01:41.574Z,8.70
2017-08-23T21:04:09.053Z,8.87
2017-08-23T21:06:36.524Z,9.47
2017-08-23T21:09:03.988Z,13.23
2017-08-23T21:11:31.466Z,11.03
2017-08-23T21:13:58.961Z,10.10
2017-08-23T21:16:26.418Z,13.20
2017-08-23T21:18:53.898Z,11.70
2017-08-23T21:21:21.349Z,9.17
2017-08-23T21:23:48.798Z,8.53
2017-08-23T21:26:16.273Z,14.10
2017-08-23T21:28:43.724Z,19.20
2017-08-23T21:31:11.210Z,25.30
2017-08-23T21:33:38.670Z,20.97
2017-08-23T21:36:06.129Z,17.10
2017-08-23T21:38:33.619Z,14.13
2017-08-23T21:41:01.070Z,13.53
2017-08-23T21:43:28.557Z,13.30
2017-08-23T21:45:56.032Z,13.87
2017-08-23T21:48:23.497Z,14.40
2017-08-23T21:50:50.978Z,12.13
2017-08-23T21:53:18.465Z,12.23
2017-08-23T21:55:45.916Z,12.20
2017-08-23T21:58:13.370Z,11.57
2017-08-23T22:00:40.838Z,12.47
2017-08-23T22:03:08.293Z,10.80
2017-08-23T22:05:35.777Z,10.70
2017-08-23T22:08:03.221Z,9.73
2017-08-23T22:10:30.673Z,10.80
2017-08-23T22:12:58.148Z,10.03
2017-08-23T22:15:25.598Z,8.20
2017-08-23T22:17:53.053Z,9.70
2017-08-23T22:20:20.529Z,10.60
2017-08-23T22:22:47.980Z,8.23
2017-08-23T22:25:15.449Z,9.30
2017-08-23T22:27:42.905Z,9.63
2017-08-23T22:30:10.377Z,9.37
2017-08-23T22:32:37.856Z,9.70
2017-08-23T22:35:05.309Z,8.63
2017-08-23T22:37:32.760Z,9.33
2017-08-23T22:40:00.245Z,9.77
2017-08-23T22:42:27.721Z,9.20
2017-08-23T22:44:55.197Z,9.50
2017-08-23T22:47:22.687Z,10.43
2017-08-23T22:49:50.154Z,11.93
2017-08-23T22:52:17.632Z,12.70
2017-08-23T22:54:45.089Z,12.10
2017-08-23T22:57:12.545Z,11.20
2017-08-23T22:59:40.197Z,11.23
2017-08-23T23:02:07.653Z,10.00
2017-08-23T23:04:35.106Z,12.63
2017-08-23T23:07:02.880Z,10.53
2017-08-23T23:09:30.334Z,10.03
2017-08-23T23:11:57.785Z,10.20
2017-08-23T23:14:25.564Z,9.90
2017-08-23T23:16:53.022Z,10.07
2017-08-23T23:19:20.485Z,10.57
2017-08-23T23:21:47.956Z,10.60
2017-08-23T23:24:15.410Z,10.57
2017-08-23T23:26:42.873Z,11.70
2017-08-23T23:29:10.357Z,12.87
2017-08-23T23:31:37.810Z,11.60
2017-08-23T23:34:05.312Z,11.57
2017-08-23T23:36:32.770Z,11.70
2017-08-23T23:39:00.219Z,11.87
2017-08-23T23:41:27.697Z,10.97
2017-08-23T23:43:55.168Z,12.43
2017-08-23T23:46:22.641Z,10.43
2017-08-23T23:48:50.110Z,9.57
2017-08-23T23:51:17.561Z,10.90
2017-08-23T23:53:45.042Z,11.87
2017-08-23T23:56:12.497Z,11.30
2017-08-23T23:58:39.967Z,11.43
